createdAt,value
2017-11-12T00:02:01.355Z,13.80
2017-11-12T00:04:28.633Z,14.87
2017-11-12T00:06:55.924Z,14.17
2017-11-12T00:09:23.197Z,21.00
2017-11-12T00:11:50.481Z,17.60
2017-11-12T00:14:17.753Z,18.60
2017-11-12T00:16:45.041Z,13.90
2017-11-12T00:19:12.312Z,18.30
2017-11-12T00:21:39.600Z,15.67
2017-11-12T00:24:06.873Z,22.00
2017-11-12T00:26:34.175Z,27.40
2017-11-12T00:29:01.448Z,16.80
2017-11-12T00:31:28.712Z,11.80
2017-11-12T00:33:56.000Z,21.53
2017-11-12T00:36:23.313Z,17.83
2017-11-12T00:38:50.601Z,12.83
2017-11-12T00:41:17.868Z,15.80
2017-11-12T00:43:45.167Z,16.87
2017-11-12T00:46:12.445Z,20.17
2017-11-12T00:48:39.725Z,16.57
2017-11-12T00:51:07.008Z,19.33
2017-11-12T00:53:34.304Z,19.67
2017-11-12T00:56:01.571Z,17.47
2017-11-12T00:58:28.868Z,16.67
2017-11-12T01:00:56.143Z,19.93
2017-11-12T01:03:23.448Z,18.13
2017-11-12T01:05:50.720Z,14.07
2017-11-12T01:08:18.001Z,14.03
2017-11-12T01:10:45.296Z,20.40
2017-11-12T01:13:12.563Z,16.90
2017-11-12T01:15:39.864Z,24.23
2017-11-12T01:18:07.140Z,20.53
2017-11-12T01:20:34.474Z,23.33
2017-11-12T01:23:01.724Z,19.57
2017-11-12T01:25:29.012Z,22.13
2017-11-12T01:27:56.281Z,23.20
2017-11-12T01:30:23.568Z,19.10
2017-11-12T01:32:50.851Z,21.37
2017-11-12T01:35:18.156Z,18.27
2017-11-12T01:37:45.432Z,27.60
2017-11-12T01:40:12.696Z,29.67
2017-11-12T01:42:39.983Z,20.10
2017-11-12T01:45:07.259Z,19.90
2017-11-12T01:47:34.547Z,22.87
2017-11-12T01:50:01.820Z,18.57
2017-11-12T01:52:29.116Z,21.23
2017-11-12T01:54:56.387Z,16.93
2017-11-12T01:57:23.677Z,23.60
2017-11-12T01:59:50.951Z,19.47
2017-11-12T02:02:18.251Z,20.20
2017-11-12T02:04:45.514Z,19.23
2017-11-12T02:07:12.802Z,18.53
2017-11-12T02:09:40.075Z,22.77
2017-11-12T02:12:07.372Z,20.50
2017-11-12T02:14:34.651Z,18.10
2017-11-12T02:17:01.928Z,17.93
2017-11-12T02:19:29.220Z,20.37
2017-11-12T02:21:56.490Z,21.50
2017-11-12T02:24:23.772Z,16.70
2017-11-12T02:26:51.048Z,23.90
2017-11-12T02:29:18.345Z,31.17
2017-11-12T02:31:45.624Z,18.77
2017-11-12T02:34:12.906Z,19.30
2017-11-12T02:36:40.172Z,23.03
2017-11-12T02:39:07.451Z,15.87
2017-11-12T02:41:34.737Z,18.47
2017-11-12T02:44:02.000Z,20.53
2017-11-12T02:46:29.294Z,23.20
2017-11-12T02:48:56.559Z,17.13
2017-11-12T02:51:23.844Z,18.20
2017-11-12T02:53:51.113Z,18.90
2017-11-12T02:56:18.408Z,14.47
2017-11-12T02:58:45.679Z,17.70
2017-11-12T03:01:12.983Z,21.33
2017-11-12T03:03:40.248Z,12.90
2017-11-12T03:06:07.555Z,18.10
2017-11-12T03:08:34.826Z,15.23
2017-11-12T03:11:02.096Z,16.47
2017-11-12T03:13:29.379Z,18.43
2017-11-12T03:15:56.660Z,14.93
2017-11-12T03:18:23.941Z,13.93
2017-11-12T03:20:51.203Z,13.40
2017-11-12T03:23:18.496Z,15.57
2017-11-12T03:25:45.759Z,13.30
2017-11-12T03:28:13.048Z,17.33
2017-11-12T03:30:40.324Z,17.23
2017-11-12T03:33:07.616Z,17.00
2017-11-12T03:35:34.888Z,32.97
2017-11-12T03:38:02.179Z,14.37
2017-11-12T03:40:29.458Z,22.93
2017-11-12T03:42:56.745Z,17.10
2017-11-12T03:45:24.017Z,19.53
2017-11-12T03:47:51.309Z,17.53
2017-11-12T03:50:18.580Z,18.53
2017-11-12T03:52:45.866Z,15.60
2017-11-12T03:55:13.137Z,14.90
2017-11-12T03:57:40.457Z,15.50
2017-11-12T04:00:07.715Z,14.80
2017-11-12T04:02:34.982Z,13.10
2017-11-12T04:05:02.264Z,13.97
2017-11-12T04:07:29.541Z,18.83
2017-11-12T04:09:56.823Z,19.30
2017-11-12T04:12:24.086Z,12.60
2017-11-12T04:14:51.379Z,15.00
2017-11-12T04:17:18.640Z,13.83
2017-11-12T04:19:45.924Z,20.80
2017-11-12T04:22:13.187Z,12.73
2017-11-12T04:24:40.472Z,12.47
2017-11-12T04:27:07.740Z,11.90
2017-11-12T04:29:35.049Z,23.10
2017-11-12T04:32:02.320Z,20.20
2017-11-12T04:34:29.584Z,17.33
2017-11-12T04:36:56.885Z,16.43
2017-11-12T04:39:24.159Z,17.80
2017-11-12T04:41:51.443Z,19.50
2017-11-12T04:44:18.709Z,15.13
2017-11-12T04:46:46.002Z,14.93
2017-11-12T04:49:13.276Z,18.37
2017-11-12T04:51:40.572Z,21.93
2017-11-12T04:54:07.844Z,20.07
2017-11-12T04:56:35.132Z,16.17
2017-11-12T04:59:02.401Z,16.93
2017-11-12T05:01:29.696Z,17.43
2017-11-12T05:03:57.042Z,17.50
2017-11-12T05:06:24.401Z,15.87
2017-11-12T05:08:51.686Z,16.50
2017-11-12T05:11:18.952Z,16.33
2017-11-12T05:13:46.240Z,21.47
2017-11-12T05:16:13.522Z,16.20
2017-11-12T05:18:40.807Z,15.90
2017-11-12T05:21:08.081Z,16.47
2017-11-12T05:23:36.215Z,15.60
2017-11-12T05:26:03.493Z,14.47
2017-11-12T05:28:30.783Z,23.83
2017-11-12T05:30:58.068Z,28.57
2017-11-12T05:33:25.352Z,28.33
2017-11-12T05:35:52.620Z,15.37
2017-11-12T05:38:19.916Z,15.10
2017-11-12T05:40:47.189Z,20.33
2017-11-12T05:43:14.480Z,15.77
2017-11-12T05:45:41.757Z,18.23
2017-11-12T05:48:09.040Z,14.83
2017-11-12T05:50:36.305Z,18.93
2017-11-12T05:53:03.596Z,15.70
2017-11-12T05:55:30.867Z,24.57
2017-11-12T05:57:58.149Z,15.63
2017-11-12T06:00:25.439Z,19.67
2017-11-12T06:02:52.711Z,20.97
2017-11-12T06:05:20.002Z,16.73
2017-11-12T06:07:47.273Z,20.80
2017-11-12T06:10:14.564Z,17.20
2017-11-12T06:12:41.836Z,21.57
2017-11-12T06:15:09.135Z,22.93
2017-11-12T06:17:36.399Z,17.67
2017-11-12T06:20:03.805Z,17.83
2017-11-12T06:22:31.081Z,20.30
2017-11-12T06:24:58.372Z,21.07
2017-11-12T06:27:25.646Z,21.50
2017-11-12T06:29:52.934Z,22.83
2017-11-12T06:32:20.305Z,15.97
2017-11-12T06:34:47.606Z,15.53
2017-11-12T06:37:14.876Z,21.50
2017-11-12T06:39:42.166Z,16.80
2017-11-12T06:42:09.443Z,21.40
2017-11-12T06:44:36.723Z,14.07
2017-11-12T06:47:04.001Z,30.23
2017-11-12T06:49:31.271Z,13.03
2017-11-12T06:51:58.557Z,15.10
2017-11-12T06:54:25.825Z,17.60
2017-11-12T06:56:53.128Z,14.13
2017-11-12T06:59:20.400Z,20.70
2017-11-12T07:01:47.669Z,13.40
2017-11-12T07:04:14.960Z,10.40
2017-11-12T07:06:42.275Z,20.57
2017-11-12T07:09:09.537Z,14.30
2017-11-12T07:11:36.802Z,21.77
2017-11-12T07:14:04.105Z,21.13
2017-11-12T07:16:31.415Z,10.93
2017-11-12T07:18:58.684Z,15.10
2017-11-12T07:21:25.992Z,16.07
2017-11-12T07:23:53.287Z,15.30
2017-11-12T07:26:20.560Z,19.63
2017-11-12T07:28:47.839Z,13.13
2017-11-12T07:31:15.134Z,22.73
2017-11-12T07:33:42.410Z,25.17
2017-11-12T07:36:09.707Z,20.80
2017-11-12T07:38:37.006Z,17.57
2017-11-12T07:41:04.281Z,24.33
2017-11-12T07:43:31.576Z,16.00
2017-11-12T07:45:58.862Z,15.17
2017-11-12T07:48:26.164Z,13.00
2017-11-12T07:50:53.444Z,14.67
2017-11-12T07:53:20.709Z,11.90
2017-11-12T07:55:48.011Z,13.00
2017-11-12T07:58:15.292Z,13.50
2017-11-12T08:00:42.579Z,13.83
2017-11-12T08:03:09.850Z,13.23
2017-11-12T08:05:37.160Z,14.37
2017-11-12T08:08:04.432Z,11.23
2017-11-12T08:10:31.696Z,16.60
2017-11-12T08:12:58.995Z,20.80
2017-11-12T08:15:26.264Z,21.60
2017-11-12T08:17:53.579Z,24.93
2017-11-12T08:20:20.956Z,14.53
2017-11-12T08:22:48.291Z,14.47
2017-11-12T08:25:15.573Z,20.30
2017-11-12T08:27:42.884Z,20.03
2017-11-12T08:30:10.196Z,25.77
2017-11-12T08:32:37.556Z,15.57
2017-11-12T08:35:04.845Z,15.93
2017-11-12T08:37:32.115Z,19.63
2017-11-12T08:39:59.428Z,17.57
2017-11-12T08:42:26.776Z,20.40
2017-11-12T08:44:54.127Z,16.57
2017-11-12T08:47:21.431Z,16.83
2017-11-12T08:49:48.708Z,14.87
2017-11-12T08:52:16.009Z,13.00
2017-11-12T08:54:43.345Z,9.80
2017-11-12T08:57:10.608Z,13.23
2017-11-12T08:59:37.936Z,12.43
2017-11-12T09:02:10.190Z,9.03
2017-11-12T09:04:37.481Z,9.97
2017-11-12T09:07:04.732Z,6.73
2017-11-12T09:09:32.019Z,7.10
2017-11-12T09:11:59.280Z,8.50
2017-11-12T09:14:26.581Z,6.63
2017-11-12T09:16:53.852Z,5.90
2017-11-12T09:19:21.804Z,7.17
2017-11-12T09:21:50.128Z,5.70
2017-11-12T09:24:18.462Z,5.77
2017-11-12T09:26:46.283Z,8.53
2017-11-12T09:29:13.981Z,7.63
2017-11-12T09:31:41.272Z,5.57
2017-11-12T09:34:08.537Z,6.53
2017-11-12T09:36:35.863Z,5.10
2017-11-12T09:39:03.761Z,5.40
2017-11-12T09:41:31.012Z,6.60
2017-11-12T09:43:58.297Z,3.87
2017-11-12T09:46:25.587Z,5.00
2017-11-12T09:48:52.872Z,3.93
2017-11-12T09:51:20.123Z,3.43
2017-11-12T09:53:47.427Z,3.30
2017-11-12T09:56:14.688Z,5.03
2017-11-12T09:58:42.296Z,3.37
2017-11-12T10:01:09.582Z,3.43
2017-11-12T10:03:36.847Z,2.93
2017-11-12T10:06:04.197Z,5.20
2017-11-12T10:08:31.466Z,3.67
2017-11-12T10:10:58.731Z,3.20
2017-11-12T10:13:26.018Z,3.40
2017-11-12T10:15:53.303Z,8.33
2017-11-12T10:18:20.569Z,7.07
2017-11-12T10:20:47.857Z,2.30
2017-11-12T10:23:15.119Z,10.23
2017-11-12T10:25:42.409Z,5.40
2017-11-12T10:28:09.691Z,2.67
2017-11-12T10:30:36.951Z,5.20
2017-11-12T10:33:04.252Z,3.30
2017-11-12T10:35:31.510Z,3.23
2017-11-12T10:37:58.807Z,7.87
2017-11-12T10:40:26.073Z,10.10
2017-11-12T10:42:53.336Z,7.03
2017-11-12T10:45:20.618Z,7.53
2017-11-12T10:47:47.882Z,5.23
2017-11-12T10:50:15.160Z,6.57
2017-11-12T10:52:42.452Z,8.33
2017-11-12T10:55:09.713Z,8.20
2017-11-12T10:57:37.004Z,6.20
2017-11-12T11:00:04.280Z,24.53
2017-11-12T11:02:31.551Z,21.50
2017-11-12T11:04:58.844Z,13.37
2017-11-12T11:07:26.155Z,11.30
2017-11-12T11:09:53.411Z,5.80
2017-11-12T11:12:20.673Z,5.40
2017-11-12T11:14:48.103Z,6.37
2017-11-12T11:17:15.348Z,5.07
2017-11-12T11:19:42.649Z,7.90
2017-11-12T11:22:09.912Z,4.37
2017-11-12T11:24:37.171Z,4.53
2017-11-12T11:27:04.516Z,4.17
2017-11-12T11:29:31.786Z,4.53
2017-11-12T11:31:59.036Z,4.57
2017-11-12T11:34:26.336Z,4.90
2017-11-12T11:36:54.293Z,9.93
2017-11-12T11:39:21.649Z,4.83
2017-11-12T11:41:48.940Z,7.73
2017-11-12T11:44:16.204Z,5.07
2017-11-12T11:52:12.073Z,6.77
2017-11-12T11:54:42.998Z,7.40
2017-11-12T11:57:20.023Z,5.00
2017-11-12T12:00:03.171Z,5.20
2017-11-12T12:02:37.401Z,5.23
2017-11-12T12:05:11.115Z,5.43
2017-11-12T12:07:53.531Z,8.00
2017-11-12T12:10:33.534Z,4.60
2017-11-12T12:15:52.195Z,3.13
2017-11-12T12:18:19.472Z,3.03
2017-11-12T12:20:46.732Z,4.10
2017-11-12T12:23:13.992Z,3.13
2017-11-12T12:25:42.367Z,3.37
2017-11-12T12:28:09.980Z,2.83
2017-11-12T12:30:37.231Z,4.20
2017-11-12T12:33:04.515Z,2.60
2017-11-12T12:35:31.967Z,4.03
2017-11-12T12:38:00.286Z,3.67
2017-11-12T12:40:28.160Z,4.30
2017-11-12T12:42:55.908Z,6.80
2017-11-12T12:45:23.480Z,2.73
2017-11-12T12:47:50.841Z,5.23
2017-11-12T12:50:18.235Z,6.23
2017-11-12T12:52:45.505Z,2.30
2017-11-12T12:55:12.792Z,3.20
2017-11-12T12:57:40.074Z,3.30
2017-11-12T13:00:07.467Z,2.90
2017-11-12T13:02:37.275Z,4.00
2017-11-12T13:05:10.282Z,3.23
2017-11-12T13:07:42.783Z,2.80
2017-11-12T13:10:17.710Z,4.40
2017-11-12T13:12:56.926Z,3.23
2017-11-12T13:15:32.441Z,3.60
2017-11-12T13:18:05.481Z,3.60
2017-11-12T13:20:49.136Z,4.63
2017-11-12T13:23:21.814Z,4.77
2017-11-12T13:25:54.739Z,3.47
2017-11-12T13:28:31.042Z,5.23
2017-11-12T13:31:06.138Z,3.70
2017-11-12T13:33:39.167Z,6.20
2017-11-12T13:36:07.220Z,3.90
2017-11-12T13:38:35.344Z,3.40
2017-11-12T13:44:16.924Z,3.60
2017-11-12T13:50:31.545Z,3.53
2017-11-12T13:53:05.947Z,2.97
2017-11-12T13:56:02.380Z,2.90
2017-11-12T13:58:56.107Z,3.30
2017-11-12T14:01:25.817Z,3.87
2017-11-12T14:04:00.957Z,3.93
2017-11-12T14:06:30.676Z,5.90
2017-11-12T14:09:06.111Z,6.03
2017-11-12T14:11:36.374Z,6.00
2017-11-12T14:14:04.678Z,4.07
2017-11-12T14:16:32.075Z,4.67
2017-11-12T14:18:59.671Z,3.67
2017-11-12T14:21:26.936Z,5.03
2017-11-12T14:23:55.260Z,3.80
2017-11-12T14:26:22.786Z,5.80
2017-11-12T14:28:50.265Z,7.70
2017-11-12T14:31:17.523Z,4.00
2017-11-12T14:45:30.604Z,6.50
2017-11-12T14:47:58.487Z,6.30
2017-11-12T14:50:35.796Z,6.03
2017-11-12T14:53:06.259Z,6.23
2017-11-12T14:55:33.541Z,7.20
2017-11-12T14:58:00.799Z,9.50
2017-11-12T15:00:28.075Z,6.87
2017-11-12T15:02:55.488Z,7.80
2017-11-12T15:05:22.785Z,7.13
2017-11-12T15:07:50.039Z,6.90
2017-11-12T15:10:18.039Z,6.23
2017-11-12T15:12:45.320Z,9.90
2017-11-12T15:15:14.383Z,8.77
2017-11-12T15:17:41.659Z,4.80
2017-11-12T15:20:13.516Z,6.20
2017-11-12T15:22:40.771Z,6.00
2017-11-12T15:25:08.032Z,7.23
2017-11-12T15:27:35.322Z,6.13
2017-11-12T15:30:03.258Z,7.73
2017-11-12T15:32:31.460Z,6.17
2017-11-12T15:34:58.743Z,6.63
2017-11-12T15:37:26.009Z,6.50
2017-11-12T15:39:53.261Z,6.27
2017-11-12T15:42:20.539Z,6.50
2017-11-12T15:44:47.839Z,7.10
2017-11-12T15:47:15.097Z,6.60
2017-11-12T15:49:42.736Z,9.00
2017-11-12T15:52:10.025Z,7.83
2017-11-12T15:54:37.283Z,7.83
2017-11-12T15:57:04.546Z,7.13
2017-11-12T15:59:31.824Z,8.90
2017-11-12T16:01:59.084Z,7.60
2017-11-12T16:04:26.597Z,7.87
2017-11-12T16:06:53.984Z,7.50
2017-11-12T16:09:21.434Z,9.63
2017-11-12T16:11:48.673Z,9.47
2017-11-12T16:14:15.956Z,9.33
2017-11-12T16:16:43.211Z,9.67
2017-11-12T16:19:10.500Z,7.60
2017-11-12T16:21:37.784Z,7.67
2017-11-12T16:24:05.041Z,7.83
2017-11-12T16:26:32.327Z,12.30
2017-11-12T16:28:59.594Z,11.03
2017-11-12T16:31:26.888Z,15.63
2017-11-12T16:33:54.161Z,8.90
2017-11-12T16:36:21.448Z,15.03
2017-11-12T16:38:48.715Z,10.47
2017-11-12T16:41:16.007Z,8.83
2017-11-12T16:43:43.271Z,5.13
2017-11-12T16:46:10.532Z,3.80
2017-11-12T16:48:37.814Z,5.23
2017-11-12T16:51:05.074Z,2.83
2017-11-12T16:53:32.369Z,2.50
2017-11-12T16:55:59.630Z,4.53
2017-11-12T16:58:26.891Z,2.60
2017-11-12T17:00:54.172Z,2.93
2017-11-12T17:03:21.461Z,2.43
2017-11-12T17:05:48.716Z,2.80
2017-11-12T17:08:15.995Z,4.10
2017-11-12T17:10:43.261Z,2.13
2017-11-12T17:13:10.544Z,1.80
2017-11-12T17:15:37.800Z,3.63
2017-11-12T17:18:05.088Z,2.83
2017-11-12T17:20:32.345Z,1.83
2017-11-12T17:22:59.641Z,2.30
2017-11-12T17:25:26.899Z,2.30
2017-11-12T17:27:54.175Z,1.87
2017-11-12T17:30:21.457Z,2.03
2017-11-12T17:32:48.720Z,2.40
2017-11-12T17:35:15.972Z,2.43
2017-11-12T17:37:43.255Z,2.60
2017-11-12T17:40:10.538Z,2.43
2017-11-12T17:42:37.812Z,3.73
2017-11-12T17:45:05.098Z,3.43
2017-11-12T17:47:32.431Z,3.77
2017-11-12T17:49:59.721Z,3.43
2017-11-12T17:52:26.977Z,5.40
2017-11-12T17:54:54.284Z,4.87
2017-11-12T17:57:21.546Z,4.72
2017-11-12T18:05:45.140Z,5.57
2017-11-12T18:08:12.608Z,5.20
2017-11-12T18:10:39.864Z,5.17
2017-11-12T18:13:07.264Z,5.00
2017-11-12T18:15:34.553Z,7.20
2017-11-12T18:18:01.852Z,5.77
2017-11-12T18:20:29.103Z,8.67
2017-11-12T18:22:56.368Z,6.90
2017-11-12T18:25:23.652Z,7.50
2017-11-12T18:27:50.944Z,8.47
2017-11-12T18:30:18.200Z,9.13
2017-11-12T18:32:45.493Z,7.97
2017-11-12T18:35:12.757Z,10.60
2017-11-12T18:37:40.072Z,12.10
2017-11-12T18:40:07.334Z,11.73
2017-11-12T18:42:34.612Z,9.60
2017-11-12T18:45:01.885Z,10.80
2017-11-12T18:47:29.147Z,10.30
2017-11-12T18:49:57.116Z,9.43
2017-11-12T18:52:24.404Z,10.23
2017-11-12T18:54:51.667Z,10.87
2017-11-12T18:57:24.011Z,9.87
2017-11-12T19:00:06.155Z,9.70
2017-11-12T19:02:39.258Z,12.30
2017-11-12T19:05:23.244Z,11.80
2017-11-12T19:08:01.186Z,11.30
2017-11-12T19:10:28.460Z,14.43
2017-11-12T19:12:55.772Z,14.93
2017-11-12T19:15:23.043Z,15.07
2017-11-12T19:18:10.081Z,12.67
2017-11-12T19:20:43.586Z,15.10
2017-11-12T19:23:13.109Z,13.80
2017-11-12T19:25:40.357Z,11.07
2017-11-12T19:28:09.439Z,12.10
2017-11-12T19:30:36.900Z,16.50
2017-11-12T19:33:05.084Z,15.63
2017-11-12T19:35:32.388Z,12.70
2017-11-12T19:37:59.656Z,12.73
2017-11-12T19:40:26.949Z,11.67
2017-11-12T19:42:54.222Z,15.70
2017-11-12T19:45:21.528Z,12.77
2017-11-12T19:47:48.795Z,15.97
2017-11-12T19:50:16.069Z,13.50
2017-11-12T19:52:43.379Z,14.13
2017-11-12T19:55:10.651Z,14.80
2017-11-12T19:57:37.918Z,17.97
2017-11-12T20:00:05.219Z,17.00
2017-11-12T20:02:32.491Z,16.33
2017-11-12T20:04:59.761Z,14.33
2017-11-12T20:07:27.071Z,14.50
2017-11-12T20:09:54.340Z,17.10
2017-11-12T20:12:21.608Z,15.03
2017-11-12T20:14:48.929Z,15.70
2017-11-12T20:17:16.204Z,14.70
2017-11-12T20:19:43.469Z,18.83
2017-11-12T20:22:10.772Z,14.03
2017-11-12T20:24:38.041Z,12.43
2017-11-12T20:27:05.352Z,15.67
2017-11-12T20:29:32.631Z,12.20
2017-11-12T20:31:59.891Z,17.37
2017-11-12T20:34:27.192Z,12.47
2017-11-12T20:36:54.456Z,18.13
2017-11-12T20:39:21.752Z,24.93
2017-11-12T20:41:49.020Z,17.27
2017-11-12T20:44:16.328Z,16.60
2017-11-12T20:46:43.592Z,15.37
2017-11-12T20:49:10.861Z,11.40
2017-11-12T20:51:38.163Z,14.83
2017-11-12T20:54:05.433Z,14.00
2017-11-12T20:56:32.700Z,16.90
2017-11-12T20:59:00.005Z,14.23
2017-11-12T21:01:27.274Z,18.30
2017-11-12T21:03:55.461Z,16.37
2017-11-12T21:06:27.705Z,18.80
2017-11-12T21:08:54.980Z,15.07
2017-11-12T21:11:22.280Z,13.40
2017-11-12T21:13:49.554Z,14.80
2017-11-12T21:16:16.850Z,15.67
2017-11-12T21:18:44.140Z,16.40
2017-11-12T21:21:13.896Z,12.77
2017-11-12T21:23:43.132Z,15.40
2017-11-12T21:26:10.403Z,15.47
2017-11-12T21:28:43.195Z,13.83
2017-11-12T21:31:12.883Z,13.77
2017-11-12T21:33:50.079Z,13.67
2017-11-12T21:36:21.024Z,14.40
2017-11-12T21:38:48.297Z,12.83
2017-11-12T21:41:15.590Z,18.00
2017-11-12T21:43:43.464Z,16.07
2017-11-12T21:46:10.778Z,13.40
2017-11-12T21:48:38.047Z,15.80
2017-11-12T21:51:05.329Z,13.50
2017-11-12T21:53:32.633Z,15.50
2017-11-12T21:55:59.891Z,13.30
2017-11-12T21:58:27.200Z,14.77
2017-11-12T22:00:54.473Z,13.63
2017-11-12T22:03:21.773Z,12.33
2017-11-12T22:05:49.039Z,13.93
2017-11-12T22:08:16.336Z,15.17
2017-11-12T22:10:43.651Z,14.63
2017-11-12T22:13:10.929Z,16.03
2017-11-12T22:15:38.195Z,15.67
2017-11-12T22:18:05.490Z,13.50
2017-11-12T22:20:32.800Z,18.10
2017-11-12T22:23:00.056Z,15.07
2017-11-12T22:25:27.360Z,13.60
2017-11-12T22:27:54.648Z,16.63
2017-11-12T22:30:21.951Z,13.33
2017-11-12T22:32:49.247Z,15.03
2017-11-12T22:35:16.511Z,14.30
2017-11-12T22:37:43.809Z,13.20
2017-11-12T22:40:11.115Z,15.93
2017-11-12T22:42:38.388Z,12.90
2017-11-12T22:45:05.661Z,15.47
2017-11-12T22:47:33.398Z,15.00
2017-11-12T22:50:00.673Z,14.07
2017-11-12T22:52:27.937Z,14.07
2017-11-12T22:54:55.233Z,19.37
2017-11-12T22:57:22.526Z,15.80
2017-11-12T22:59:49.788Z,19.10
2017-11-12T23:02:17.083Z,18.57
2017-11-12T23:04:44.360Z,22.90
2017-11-12T23:07:11.648Z,15.90
2017-11-12T23:09:38.948Z,23.67
2017-11-12T23:12:06.220Z,17.87
2017-11-12T23:14:33.520Z,16.70
2017-11-12T23:17:00.785Z,16.47
2017-11-12T23:19:28.082Z,17.83
2017-11-12T23:21:55.369Z,16.70
2017-11-12T23:24:22.638Z,17.30
2017-11-12T23:26:49.948Z,16.47
2017-11-12T23:29:17.215Z,21.43
2017-11-12T23:31:44.484Z,16.37
2017-11-12T23:34:11.793Z,20.50
2017-11-12T23:36:39.062Z,18.50
2017-11-12T23:39:06.334Z,18.83
2017-11-12T23:41:33.629Z,18.83
2017-11-12T23:44:00.928Z,19.17
2017-11-12T23:46:28.201Z,20.63
2017-11-12T23:48:55.498Z,21.83
2017-11-12T23:51:22.799Z,21.83
2017-11-12T23:53:50.090Z,20.93
2017-11-12T23:56:17.361Z,20.50
2017-11-12T23:58:44.648Z,26.10
